sensor_id;sensor_type;location;lat;lon;timestamp;P1;durP1;ratioP1;P2;durP2;ratioP2
18568;SDS011;14780;48.316;-1.050;2023-07-09T00:00:11;4.35;;;2.38;;
18568;SDS011;14780;48.316;-1.050;2023-07-09T00:03:02;4.82;;;2.50;;
18568;SDS011;14780;48.316;-1.050;2023-07-09T00:05:47;4.55;;;2.58;;
18568;SDS011;14780;48.316;-1.050;2023-07-09T00:08:33;4.30;;;2.28;;
18568;SDS011;14780;48.316;-1.050;2023-07-09T00:11:18;4.55;;;2.63;;
18568;SDS011;14780;48.316;-1.050;2023-07-09T00:14:04;3.40;;;2.20;;
18568;SDS011;14780;48.316;-1.050;2023-07-09T00:16:49;3.67;;;2.30;;
18568;SDS011;14780;48.316;-1.050;2023-07-09T00:19:34;3.55;;;1.80;;
18568;SDS011;14780;48.316;-1.050;2023-07-09T00:22:19;4.57;;;2.47;;
18568;SDS011;14780;48.316;-1.050;2023-07-09T00:25:04;4.05;;;2.30;;
18568;SDS011;14780;48.316;-1.050;2023-07-09T00:27:51;3.13;;;2.08;;
18568;SDS011;14780;48.316;-1.050;2023-07-09T00:30:36;3.92;;;2.30;;
18568;SDS011;14780;48.316;-1.050;2023-07-09T00:33:21;3.22;;;2.00;;
18568;SDS011;14780;48.316;-1.050;2023-07-09T00:36:16;4.97;;;2.60;;
18568;SDS011;14780;48.316;-1.050;2023-07-09T00:39:16;5.45;;;2.67;;
18568;SDS011;14780;48.316;-1.050;2023-07-09T00:42:02;4.35;;;2.50;;
18568;SDS011;14780;48.316;-1.050;2023-07-09T00:44:50;3.70;;;2.30;;
18568;SDS011;14780;48.316;-1.050;2023-07-09T00:47:41;4.47;;;2.20;;
18568;SDS011;14780;48.316;-1.050;2023-07-09T00:53:33;5.00;;;2.40;;
18568;SDS011;14780;48.316;-1.050;2023-07-09T00:56:28;4.35;;;2.55;;
18568;SDS011;14780;48.316;-1.050;2023-07-09T00:59:18;4.10;;;2.40;;
18568;SDS011;14780;48.316;-1.050;2023-07-09T01:02:07;4.70;;;2.28;;
18568;SDS011;14780;48.316;-1.050;2023-07-09T01:04:54;5.13;;;2.58;;
18568;SDS011;14780;48.316;-1.050;2023-07-09T01:07:44;4.55;;;2.00;;
18568;SDS011;14780;48.316;-1.050;2023-07-09T01:10:29;3.85;;;2.10;;
18568;SDS011;14780;48.316;-1.050;2023-07-09T01:13:14;3.85;;;2.13;;
18568;SDS011;14780;48.316;-1.050;2023-07-09T01:16:02;3.78;;;2.28;;
18568;SDS011;14780;48.316;-1.050;2023-07-09T01:18:48;3.07;;;2.10;;
18568;SDS011;14780;48.316;-1.050;2023-07-09T01:21:36;3.15;;;2.17;;
18568;SDS011;14780;48.316;-1.050;2023-07-09T01:27:45;4.55;;;2.10;;
18568;SDS011;14780;48.316;-1.050;2023-07-09T01:30:32;4.55;;;2.25;;
18568;SDS011;14780;48.316;-1.050;2023-07-09T01:33:21;3.70;;;2.10;;
18568;SDS011;14780;48.316;-1.050;2023-07-09T01:36:07;3.42;;;2.13;;
18568;SDS011;14780;48.316;-1.050;2023-07-09T01:38:53;3.58;;;2.25;;
18568;SDS011;14780;48.316;-1.050;2023-07-09T01:41:39;3.47;;;2.00;;
18568;SDS011;14780;48.316;-1.050;2023-07-09T01:44:26;4.32;;;2.20;;
18568;SDS011;14780;48.316;-1.050;2023-07-09T01:47:12;3.45;;;2.03;;
18568;SDS011;14780;48.316;-1.050;2023-07-09T01:49:57;4.15;;;2.20;;
18568;SDS011;14780;48.316;-1.050;2023-07-09T01:52:43;4.72;;;2.63;;
18568;SDS011;14780;48.316;-1.050;2023-07-09T01:55:29;3.17;;;2.20;;
18568;SDS011;14780;48.316;-1.050;2023-07-09T01:58:14;3.85;;;2.10;;
18568;SDS011;14780;48.316;-1.050;2023-07-09T02:01:00;3.92;;;2.20;;
18568;SDS011;14780;48.316;-1.050;2023-07-09T02:03:45;3.90;;;1.90;;
18568;SDS011;14780;48.316;-1.050;2023-07-09T02:06:30;3.83;;;2.25;;
18568;SDS011;14780;48.316;-1.050;2023-07-09T02:09:18;5.00;;;2.33;;
18568;SDS011;14780;48.316;-1.050;2023-07-09T02:12:02;3.92;;;2.25;;
18568;SDS011;14780;48.316;-1.050;2023-07-09T02:14:48;3.23;;;2.20;;
18568;SDS011;14780;48.316;-1.050;2023-07-09T02:17:32;7.53;;;2.47;;
18568;SDS011;14780;48.316;-1.050;2023-07-09T02:20:17;5.40;;;2.20;;
18568;SDS011;14780;48.316;-1.050;2023-07-09T02:23:03;4.10;;;2.33;;
18568;SDS011;14780;48.316;-1.050;2023-07-09T02:25:48;4.28;;;2.13;;
18568;SDS011;14780;48.316;-1.050;2023-07-09T02:28:33;4.30;;;2.40;;
18568;SDS011;14780;48.316;-1.050;2023-07-09T02:31:18;3.78;;;2.17;;
18568;SDS011;14780;48.316;-1.050;2023-07-09T02:34:03;3.50;;;2.13;;
18568;SDS011;14780;48.316;-1.050;2023-07-09T02:36:47;3.03;;;2.10;;
18568;SDS011;14780;48.316;-1.050;2023-07-09T02:39:32;3.47;;;2.10;;
18568;SDS011;14780;48.316;-1.050;2023-07-09T02:42:17;2.70;;;2.00;;
18568;SDS011;14780;48.316;-1.050;2023-07-09T02:45:04;4.43;;;2.28;;
18568;SDS011;14780;48.316;-1.050;2023-07-09T02:47:49;3.23;;;2.17;;
18568;SDS011;14780;48.316;-1.050;2023-07-09T02:50:33;3.45;;;1.95;;
18568;SDS011;14780;48.316;-1.050;2023-07-09T02:53:18;3.30;;;2.10;;
18568;SDS011;14780;48.316;-1.050;2023-07-09T02:56:03;3.75;;;2.10;;
18568;SDS011;14780;48.316;-1.050;2023-07-09T02:58:48;5.10;;;2.27;;
18568;SDS011;14780;48.316;-1.050;2023-07-09T03:01:33;5.35;;;2.40;;
18568;SDS011;14780;48.316;-1.050;2023-07-09T03:04:19;4.93;;;2.38;;
18568;SDS011;14780;48.316;-1.050;2023-07-09T03:07:04;4.13;;;2.35;;
18568;SDS011;14780;48.316;-1.050;2023-07-09T03:09:49;5.35;;;2.33;;
18568;SDS011;14780;48.316;-1.050;2023-07-09T03:12:35;4.13;;;2.05;;
18568;SDS011;14780;48.316;-1.050;2023-07-09T03:15:19;3.33;;;2.08;;
18568;SDS011;14780;48.316;-1.050;2023-07-09T03:18:04;4.93;;;2.20;;
18568;SDS011;14780;48.316;-1.050;2023-07-09T03:20:48;4.18;;;2.15;;
18568;SDS011;14780;48.316;-1.050;2023-07-09T03:23:33;4.10;;;2.30;;
18568;SDS011;14780;48.316;-1.050;2023-07-09T03:26:18;4.70;;;2.50;;
18568;SDS011;14780;48.316;-1.050;2023-07-09T03:29:03;2.85;;;1.90;;
18568;SDS011;14780;48.316;-1.050;2023-07-09T03:31:48;3.60;;;2.30;;
18568;SDS011;14780;48.316;-1.050;2023-07-09T03:34:32;4.40;;;2.20;;
18568;SDS011;14780;48.316;-1.050;2023-07-09T03:37:17;5.20;;;2.33;;
18568;SDS011;14780;48.316;-1.050;2023-07-09T03:40:02;4.28;;;2.28;;
18568;SDS011;14780;48.316;-1.050;2023-07-09T03:42:48;4.07;;;2.30;;
18568;SDS011;14780;48.316;-1.050;2023-07-09T03:45:33;4.28;;;2.30;;
18568;SDS011;14780;48.316;-1.050;2023-07-09T03:48:19;4.07;;;2.10;;
18568;SDS011;14780;48.316;-1.050;2023-07-09T03:51:04;4.20;;;2.22;;
18568;SDS011;14780;48.316;-1.050;2023-07-09T03:53:49;4.47;;;2.38;;
18568;SDS011;14780;48.316;-1.050;2023-07-09T03:56:33;4.00;;;2.30;;
18568;SDS011;14780;48.316;-1.050;2023-07-09T03:59:18;3.72;;;2.20;;
18568;SDS011;14780;48.316;-1.050;2023-07-09T04:02:02;5.80;;;2.33;;
18568;SDS011;14780;48.316;-1.050;2023-07-09T04:04:48;4.03;;;2.20;;
18568;SDS011;14780;48.316;-1.050;2023-07-09T04:07:32;3.50;;;2.10;;
18568;SDS011;14780;48.316;-1.050;2023-07-09T04:10:17;3.85;;;2.10;;
18568;SDS011;14780;48.316;-1.050;2023-07-09T04:13:02;2.73;;;2.00;;
18568;SDS011;14780;48.316;-1.050;2023-07-09T04:15:47;4.22;;;2.33;;
18568;SDS011;14780;48.316;-1.050;2023-07-09T04:18:33;5.28;;;2.35;;
18568;SDS011;14780;48.316;-1.050;2023-07-09T04:21:19;4.63;;;2.70;;
18568;SDS011;14780;48.316;-1.050;2023-07-09T04:24:04;3.72;;;2.22;;
18568;SDS011;14780;48.316;-1.050;2023-07-09T04:26:49;3.95;;;2.03;;
18568;SDS011;14780;48.316;-1.050;2023-07-09T04:29:40;3.00;;;2.13;;
18568;SDS011;14780;48.316;-1.050;2023-07-09T04:32:25;2.70;;;1.98;;
18568;SDS011;14780;48.316;-1.050;2023-07-09T04:35:10;3.47;;;2.05;;
18568;SDS011;14780;48.316;-1.050;2023-07-09T04:37:56;2.85;;;1.80;;
18568;SDS011;14780;48.316;-1.050;2023-07-09T04:40:41;5.22;;;2.25;;
18568;SDS011;14780;48.316;-1.050;2023-07-09T04:43:26;4.15;;;2.17;;
18568;SDS011;14780;48.316;-1.050;2023-07-09T04:46:11;3.78;;;2.17;;
18568;SDS011;14780;48.316;-1.050;2023-07-09T04:48:55;3.97;;;2.30;;
18568;SDS011;14780;48.316;-1.050;2023-07-09T04:51:40;3.30;;;2.10;;
18568;SDS011;14780;48.316;-1.050;2023-07-09T04:54:25;4.10;;;2.20;;
18568;SDS011;14780;48.316;-1.050;2023-07-09T04:57:11;4.05;;;2.25;;
18568;SDS011;14780;48.316;-1.050;2023-07-09T04:59:56;4.57;;;2.20;;
18568;SDS011;14780;48.316;-1.050;2023-07-09T05:02:41;5.25;;;2.28;;
18568;SDS011;14780;48.316;-1.050;2023-07-09T05:05:26;2.90;;;2.03;;
18568;SDS011;14780;48.316;-1.050;2023-07-09T05:08:11;4.35;;;2.05;;
18568;SDS011;14780;48.316;-1.050;2023-07-09T05:10:56;4.33;;;2.27;;
18568;SDS011;14780;48.316;-1.050;2023-07-09T05:13:44;3.40;;;1.98;;
18568;SDS011;14780;48.316;-1.050;2023-07-09T05:16:29;3.63;;;2.20;;
18568;SDS011;14780;48.316;-1.050;2023-07-09T05:19:14;3.45;;;1.88;;
18568;SDS011;14780;48.316;-1.050;2023-07-09T05:21:59;4.60;;;2.22;;
18568;SDS011;14780;48.316;-1.050;2023-07-09T05:24:44;4.15;;;2.33;;
18568;SDS011;14780;48.316;-1.050;2023-07-09T05:27:28;4.55;;;2.28;;
18568;SDS011;14780;48.316;-1.050;2023-07-09T05:30:13;4.43;;;2.13;;
18568;SDS011;14780;48.316;-1.050;2023-07-09T05:32:58;4.20;;;2.13;;
18568;SDS011;14780;48.316;-1.050;2023-07-09T05:35:43;3.73;;;2.03;;
18568;SDS011;14780;48.316;-1.050;2023-07-09T05:38:28;3.60;;;2.13;;
18568;SDS011;14780;48.316;-1.050;2023-07-09T05:41:12;3.20;;;2.03;;
18568;SDS011;14780;48.316;-1.050;2023-07-09T05:44:00;3.72;;;2.20;;
18568;SDS011;14780;48.316;-1.050;2023-07-09T05:46:45;3.40;;;2.00;;
18568;SDS011;14780;48.316;-1.050;2023-07-09T05:49:30;3.55;;;2.00;;
18568;SDS011;14780;48.316;-1.050;2023-07-09T05:52:15;5.27;;;2.33;;
18568;SDS011;14780;48.316;-1.050;2023-07-09T05:55:04;3.20;;;2.10;;
18568;SDS011;14780;48.316;-1.050;2023-07-09T05:57:49;3.50;;;2.00;;
18568;SDS011;14780;48.316;-1.050;2023-07-09T06:00:35;3.75;;;2.13;;
18568;SDS011;14780;48.316;-1.050;2023-07-09T06:03:21;3.45;;;2.10;;
18568;SDS011;14780;48.316;-1.050;2023-07-09T06:06:09;2.58;;;1.75;;
18568;SDS011;14780;48.316;-1.050;2023-07-09T06:08:54;3.67;;;2.13;;
18568;SDS011;14780;48.316;-1.050;2023-07-09T06:11:38;3.97;;;2.10;;
18568;SDS011;14780;48.316;-1.050;2023-07-09T06:14:24;5.05;;;2.13;;
18568;SDS011;14780;48.316;-1.050;2023-07-09T06:17:09;3.60;;;2.10;;
18568;SDS011;14780;48.316;-1.050;2023-07-09T06:19:53;4.35;;;2.10;;
18568;SDS011;14780;48.316;-1.050;2023-07-09T06:22:38;4.65;;;2.20;;
18568;SDS011;14780;48.316;-1.050;2023-07-09T06:25:23;3.00;;;1.90;;
18568;SDS011;14780;48.316;-1.050;2023-07-09T06:28:07;4.28;;;2.10;;
18568;SDS011;14780;48.316;-1.050;2023-07-09T06:30:52;2.72;;;1.85;;
18568;SDS011;14780;48.316;-1.050;2023-07-09T06:33:37;3.23;;;1.93;;
18568;SDS011;14780;48.316;-1.050;2023-07-09T06:36:21;3.42;;;1.90;;
18568;SDS011;14780;48.316;-1.050;2023-07-09T06:39:06;4.20;;;2.00;;
18568;SDS011;14780;48.316;-1.050;2023-07-09T06:41:51;8.15;;;2.28;;
18568;SDS011;14780;48.316;-1.050;2023-07-09T06:44:36;6.80;;;2.22;;
18568;SDS011;14780;48.316;-1.050;2023-07-09T06:47:21;5.35;;;2.22;;
18568;SDS011;14780;48.316;-1.050;2023-07-09T06:50:06;3.97;;;2.20;;
18568;SDS011;14780;48.316;-1.050;2023-07-09T06:52:51;6.72;;;2.50;;
18568;SDS011;14780;48.316;-1.050;2023-07-09T06:55:36;3.78;;;2.15;;
18568;SDS011;14780;48.316;-1.050;2023-07-09T06:58:21;3.97;;;2.10;;
18568;SDS011;14780;48.316;-1.050;2023-07-09T07:01:08;5.15;;;2.33;;
18568;SDS011;14780;48.316;-1.050;2023-07-09T07:03:55;6.38;;;2.60;;
18568;SDS011;14780;48.316;-1.050;2023-07-09T07:06:39;4.82;;;2.50;;
18568;SDS011;14780;48.316;-1.050;2023-07-09T07:09:24;5.38;;;2.22;;
18568;SDS011;14780;48.316;-1.050;2023-07-09T07:12:08;4.68;;;2.40;;
18568;SDS011;14780;48.316;-1.050;2023-07-09T07:14:55;4.72;;;2.25;;
18568;SDS011;14780;48.316;-1.050;2023-07-09T07:17:40;5.22;;;2.45;;
18568;SDS011;14780;48.316;-1.050;2023-07-09T07:20:25;8.57;;;2.40;;
18568;SDS011;14780;48.316;-1.050;2023-07-09T07:23:10;8.23;;;2.30;;
18568;SDS011;14780;48.316;-1.050;2023-07-09T07:25:56;6.60;;;2.00;;
18568;SDS011;14780;48.316;-1.050;2023-07-09T07:28:40;4.68;;;2.10;;
18568;SDS011;14780;48.316;-1.050;2023-07-09T07:31:25;6.13;;;2.05;;
18568;SDS011;14780;48.316;-1.050;2023-07-09T07:34:10;3.67;;;1.88;;
18568;SDS011;14780;48.316;-1.050;2023-07-09T07:36:56;3.73;;;1.83;;
18568;SDS011;14780;48.316;-1.050;2023-07-09T07:39:40;4.20;;;1.80;;
18568;SDS011;14780;48.316;-1.050;2023-07-09T07:42:25;4.97;;;2.00;;
18568;SDS011;14780;48.316;-1.050;2023-07-09T07:45:10;4.47;;;2.00;;
18568;SDS011;14780;48.316;-1.050;2023-07-09T07:47:55;4.00;;;1.85;;
18568;SDS011;14780;48.316;-1.050;2023-07-09T07:50:40;3.63;;;1.80;;
18568;SDS011;14780;48.316;-1.050;2023-07-09T07:53:24;4.97;;;2.10;;
18568;SDS011;14780;48.316;-1.050;2023-07-09T07:56:09;3.42;;;1.90;;
18568;SDS011;14780;48.316;-1.050;2023-07-09T07:58:54;3.35;;;1.55;;
18568;SDS011;14780;48.316;-1.050;2023-07-09T08:01:38;3.33;;;1.98;;
18568;SDS011;14780;48.316;-1.050;2023-07-09T08:04:23;3.67;;;1.90;;
18568;SDS011;14780;48.316;-1.050;2023-07-09T08:07:08;4.47;;;2.10;;
18568;SDS011;14780;48.316;-1.050;2023-07-09T08:09:54;4.13;;;1.85;;
18568;SDS011;14780;48.316;-1.050;2023-07-09T08:12:39;5.32;;;1.92;;
18568;SDS011;14780;48.316;-1.050;2023-07-09T08:15:23;2.60;;;1.60;;
18568;SDS011;14780;48.316;-1.050;2023-07-09T08:18:09;4.93;;;2.10;;
18568;SDS011;14780;48.316;-1.050;2023-07-09T08:20:53;3.47;;;1.70;;
18568;SDS011;14780;48.316;-1.050;2023-07-09T08:23:38;2.83;;;1.60;;
18568;SDS011;14780;48.316;-1.050;2023-07-09T08:26:23;4.28;;;2.05;;
18568;SDS011;14780;48.316;-1.050;2023-07-09T08:29:07;2.85;;;1.90;;
18568;SDS011;14780;48.316;-1.050;2023-07-09T08:31:52;2.58;;;1.73;;
18568;SDS011;14780;48.316;-1.050;2023-07-09T08:34:37;3.15;;;2.00;;
18568;SDS011;14780;48.316;-1.050;2023-07-09T08:37:23;3.07;;;1.73;;
18568;SDS011;14780;48.316;-1.050;2023-07-09T08:40:17;3.20;;;1.88;;
18568;SDS011;14780;48.316;-1.050;2023-07-09T08:43:06;3.50;;;1.90;;
18568;SDS011;14780;48.316;-1.050;2023-07-09T08:49:29;6.78;;;2.15;;
18568;SDS011;14780;48.316;-1.050;2023-07-09T08:52:31;7.00;;;2.10;;
18568;SDS011;14780;48.316;-1.050;2023-07-09T08:55:23;6.95;;;2.50;;
18568;SDS011;14780;48.316;-1.050;2023-07-09T08:58:14;8.30;;;2.55;;
18568;SDS011;14780;48.316;-1.050;2023-07-09T09:01:12;5.90;;;2.60;;
18568;SDS011;14780;48.316;-1.050;2023-07-09T09:04:19;5.95;;;2.45;;
18568;SDS011;14780;48.316;-1.050;2023-07-09T09:07:25;5.97;;;2.38;;
18568;SDS011;14780;48.316;-1.050;2023-07-09T09:11:10;7.38;;;2.15;;
18568;SDS011;14780;48.316;-1.050;2023-07-09T09:13:41;5.70;;;2.40;;
18568;SDS011;14780;48.316;-1.050;2023-07-09T09:16:29;6.38;;;2.38;;
18568;SDS011;14780;48.316;-1.050;2023-07-09T09:22:21;5.63;;;2.22;;
18568;SDS011;14780;48.316;-1.050;2023-07-09T09:25:24;6.07;;;2.23;;
18568;SDS011;14780;48.316;-1.050;2023-07-09T09:28:12;9.82;;;2.55;;
18568;SDS011;14780;48.316;-1.050;2023-07-09T09:30:57;9.45;;;2.58;;
18568;SDS011;14780;48.316;-1.050;2023-07-09T09:33:43;7.57;;;2.45;;
18568;SDS011;14780;48.316;-1.050;2023-07-09T09:36:29;8.90;;;2.67;;
18568;SDS011;14780;48.316;-1.050;2023-07-09T09:39:14;8.00;;;2.58;;
18568;SDS011;14780;48.316;-1.050;2023-07-09T09:42:00;5.55;;;2.38;;
18568;SDS011;14780;48.316;-1.050;2023-07-09T09:44:45;6.00;;;2.37;;
18568;SDS011;14780;48.316;-1.050;2023-07-09T09:47:30;9.18;;;3.30;;
18568;SDS011;14780;48.316;-1.050;2023-07-09T09:50:15;9.88;;;3.50;;
18568;SDS011;14780;48.316;-1.050;2023-07-09T09:53:01;9.57;;;5.22;;
18568;SDS011;14780;48.316;-1.050;2023-07-09T09:55:53;10.93;;;4.10;;
18568;SDS011;14780;48.316;-1.050;2023-07-09T09:58:40;10.52;;;3.80;;
18568;SDS011;14780;48.316;-1.050;2023-07-09T10:01:27;5.05;;;2.50;;
18568;SDS011;14780;48.316;-1.050;2023-07-09T10:04:21;4.88;;;2.45;;
18568;SDS011;14780;48.316;-1.050;2023-07-09T10:07:07;6.53;;;2.78;;
18568;SDS011;14780;48.316;-1.050;2023-07-09T10:09:53;9.68;;;2.92;;
18568;SDS011;14780;48.316;-1.050;2023-07-09T10:12:40;7.72;;;3.13;;
18568;SDS011;14780;48.316;-1.050;2023-07-09T10:15:58;4.80;;;2.42;;
18568;SDS011;14780;48.316;-1.050;2023-07-09T10:22:06;7.15;;;2.58;;
18568;SDS011;14780;48.316;-1.050;2023-07-09T10:25:10;4.68;;;2.70;;
18568;SDS011;14780;48.316;-1.050;2023-07-09T10:34:27;5.47;;;2.60;;
18568;SDS011;14780;48.316;-1.050;2023-07-09T10:40:36;7.20;;;3.00;;
18568;SDS011;14780;48.316;-1.050;2023-07-09T10:46:31;5.55;;;2.60;;
18568;SDS011;14780;48.316;-1.050;2023-07-09T10:49:18;5.43;;;2.45;;
18568;SDS011;14780;48.316;-1.050;2023-07-09T10:52:22;5.80;;;2.42;;
18568;SDS011;14780;48.316;-1.050;2023-07-09T10:55:24;6.30;;;2.40;;
18568;SDS011;14780;48.316;-1.050;2023-07-09T10:58:34;6.93;;;2.58;;
18568;SDS011;14780;48.316;-1.050;2023-07-09T11:01:43;5.00;;;2.40;;
18568;SDS011;14780;48.316;-1.050;2023-07-09T11:04:34;4.72;;;2.30;;
18568;SDS011;14780;48.316;-1.050;2023-07-09T11:10:23;7.13;;;2.90;;
18568;SDS011;14780;48.316;-1.050;2023-07-09T11:13:30;5.85;;;2.45;;
18568;SDS011;14780;48.316;-1.050;2023-07-09T11:16:30;9.60;;;3.20;;
18568;SDS011;14780;48.316;-1.050;2023-07-09T11:19:19;10.32;;;5.55;;
18568;SDS011;14780;48.316;-1.050;2023-07-09T11:22:12;16.75;;;9.73;;
18568;SDS011;14780;48.316;-1.050;2023-07-09T11:28:06;10.67;;;4.13;;
18568;SDS011;14780;48.316;-1.050;2023-07-09T11:30:54;7.03;;;2.78;;
18568;SDS011;14780;48.316;-1.050;2023-07-09T11:33:49;8.05;;;2.58;;
18568;SDS011;14780;48.316;-1.050;2023-07-09T11:37:08;5.55;;;2.58;;
18568;SDS011;14780;48.316;-1.050;2023-07-09T11:40:01;6.30;;;2.83;;
18568;SDS011;14780;48.316;-1.050;2023-07-09T11:42:55;4.75;;;2.40;;
18568;SDS011;14780;48.316;-1.050;2023-07-09T11:45:42;4.82;;;2.42;;
18568;SDS011;14780;48.316;-1.050;2023-07-09T11:48:29;5.13;;;2.40;;
18568;SDS011;14780;48.316;-1.050;2023-07-09T11:51:40;6.78;;;2.70;;
18568;SDS011;14780;48.316;-1.050;2023-07-09T11:54:37;5.80;;;2.58;;
18568;SDS011;14780;48.316;-1.050;2023-07-09T11:57:22;6.20;;;2.70;;
18568;SDS011;14780;48.316;-1.050;2023-07-09T12:00:08;8.88;;;2.53;;
18568;SDS011;14780;48.316;-1.050;2023-07-09T12:02:53;6.70;;;2.80;;
18568;SDS011;14780;48.316;-1.050;2023-07-09T12:05:39;6.25;;;2.60;;
18568;SDS011;14780;48.316;-1.050;2023-07-09T12:08:37;7.53;;;3.15;;
18568;SDS011;14780;48.316;-1.050;2023-07-09T12:11:28;6.30;;;2.72;;
18568;SDS011;14780;48.316;-1.050;2023-07-09T12:14:18;9.90;;;2.97;;
18568;SDS011;14780;48.316;-1.050;2023-07-09T12:17:07;8.35;;;2.70;;
18568;SDS011;14780;48.316;-1.050;2023-07-09T12:19:53;7.85;;;3.00;;
18568;SDS011;14780;48.316;-1.050;2023-07-09T12:22:39;5.75;;;2.70;;
18568;SDS011;14780;48.316;-1.050;2023-07-09T12:25:25;6.90;;;2.85;;
18568;SDS011;14780;48.316;-1.050;2023-07-09T12:28:13;5.75;;;2.72;;
18568;SDS011;14780;48.316;-1.050;2023-07-09T12:30:58;8.98;;;3.92;;
18568;SDS011;14780;48.316;-1.050;2023-07-09T12:33:49;7.53;;;3.70;;
18568;SDS011;14780;48.316;-1.050;2023-07-09T12:36:37;7.57;;;3.27;;
18568;SDS011;14780;48.316;-1.050;2023-07-09T12:39:26;7.93;;;3.17;;
18568;SDS011;14780;48.316;-1.050;2023-07-09T12:42:34;6.90;;;3.10;;
18568;SDS011;14780;48.316;-1.050;2023-07-09T12:45:19;7.47;;;2.90;;
18568;SDS011;14780;48.316;-1.050;2023-07-09T12:48:05;7.60;;;2.80;;
18568;SDS011;14780;48.316;-1.050;2023-07-09T12:50:51;6.38;;;2.75;;
18568;SDS011;14780;48.316;-1.050;2023-07-09T12:53:40;7.13;;;2.75;;
18568;SDS011;14780;48.316;-1.050;2023-07-09T12:56:25;5.25;;;2.75;;
18568;SDS011;14780;48.316;-1.050;2023-07-09T12:59:20;4.83;;;2.60;;
18568;SDS011;14780;48.316;-1.050;2023-07-09T13:02:15;11.02;;;2.78;;
18568;SDS011;14780;48.316;-1.050;2023-07-09T13:05:05;4.05;;;2.20;;
18568;SDS011;14780;48.316;-1.050;2023-07-09T13:08:00;6.43;;;2.38;;
18568;SDS011;14780;48.316;-1.050;2023-07-09T13:10:45;5.97;;;2.70;;
18568;SDS011;14780;48.316;-1.050;2023-07-09T13:13:34;12.48;;;2.60;;
18568;SDS011;14780;48.316;-1.050;2023-07-09T13:16:19;6.13;;;2.55;;
18568;SDS011;14780;48.316;-1.050;2023-07-09T13:19:04;6.60;;;2.63;;
18568;SDS011;14780;48.316;-1.050;2023-07-09T13:21:52;7.93;;;2.30;;
18568;SDS011;14780;48.316;-1.050;2023-07-09T13:24:36;4.33;;;2.40;;
18568;SDS011;14780;48.316;-1.050;2023-07-09T13:27:22;8.45;;;2.40;;
18568;SDS011;14780;48.316;-1.050;2023-07-09T13:30:08;6.82;;;2.58;;
18568;SDS011;14780;48.316;-1.050;2023-07-09T13:32:52;4.55;;;2.38;;
18568;SDS011;14780;48.316;-1.050;2023-07-09T13:35:37;4.55;;;2.40;;
18568;SDS011;14780;48.316;-1.050;2023-07-09T13:38:22;7.30;;;2.53;;
18568;SDS011;14780;48.316;-1.050;2023-07-09T13:41:12;6.25;;;2.60;;
18568;SDS011;14780;48.316;-1.050;2023-07-09T13:43:58;4.85;;;2.55;;
18568;SDS011;14780;48.316;-1.050;2023-07-09T13:46:43;6.80;;;2.65;;
18568;SDS011;14780;48.316;-1.050;2023-07-09T13:49:29;5.63;;;2.45;;
18568;SDS011;14780;48.316;-1.050;2023-07-09T13:52:15;5.25;;;2.30;;
18568;SDS011;14780;48.316;-1.050;2023-07-09T13:55:03;4.63;;;2.40;;
18568;SDS011;14780;48.316;-1.050;2023-07-09T13:57:49;8.50;;;2.55;;
18568;SDS011;14780;48.316;-1.050;2023-07-09T14:00:34;5.00;;;2.30;;
18568;SDS011;14780;48.316;-1.050;2023-07-09T14:03:24;6.40;;;2.50;;
18568;SDS011;14780;48.316;-1.050;2023-07-09T14:06:14;7.10;;;2.67;;
18568;SDS011;14780;48.316;-1.050;2023-07-09T14:09:01;6.05;;;2.60;;
18568;SDS011;14780;48.316;-1.050;2023-07-09T14:11:47;5.07;;;2.42;;
18568;SDS011;14780;48.316;-1.050;2023-07-09T14:14:34;6.45;;;2.20;;
18568;SDS011;14780;48.316;-1.050;2023-07-09T14:17:19;6.65;;;2.70;;
18568;SDS011;14780;48.316;-1.050;2023-07-09T14:20:10;6.15;;;2.63;;
18568;SDS011;14780;48.316;-1.050;2023-07-09T14:22:56;6.18;;;2.35;;
18568;SDS011;14780;48.316;-1.050;2023-07-09T14:25:43;7.68;;;2.60;;
18568;SDS011;14780;48.316;-1.050;2023-07-09T14:28:29;6.13;;;2.40;;
18568;SDS011;14780;48.316;-1.050;2023-07-09T14:31:27;5.95;;;2.65;;
18568;SDS011;14780;48.316;-1.050;2023-07-09T14:34:16;5.43;;;2.85;;
18568;SDS011;14780;48.316;-1.050;2023-07-09T14:37:04;6.10;;;2.58;;
18568;SDS011;14780;48.316;-1.050;2023-07-09T14:39:51;4.80;;;2.65;;
18568;SDS011;14780;48.316;-1.050;2023-07-09T14:42:37;6.20;;;2.65;;
18568;SDS011;14780;48.316;-1.050;2023-07-09T14:45:23;8.65;;;3.33;;
18568;SDS011;14780;48.316;-1.050;2023-07-09T14:50:56;6.00;;;2.42;;
18568;SDS011;14780;48.316;-1.050;2023-07-09T14:53:41;7.05;;;2.80;;
18568;SDS011;14780;48.316;-1.050;2023-07-09T14:56:27;6.07;;;2.60;;
18568;SDS011;14780;48.316;-1.050;2023-07-09T14:59:11;6.57;;;2.70;;
18568;SDS011;14780;48.316;-1.050;2023-07-09T15:01:56;5.63;;;2.60;;
18568;SDS011;14780;48.316;-1.050;2023-07-09T15:04:41;9.23;;;2.95;;
18568;SDS011;14780;48.316;-1.050;2023-07-09T15:07:26;6.38;;;2.80;;
18568;SDS011;14780;48.316;-1.050;2023-07-09T15:10:18;7.10;;;2.97;;
18568;SDS011;14780;48.316;-1.050;2023-07-09T15:13:40;7.03;;;3.03;;
18568;SDS011;14780;48.316;-1.050;2023-07-09T15:16:19;6.97;;;2.72;;
18568;SDS011;14780;48.316;-1.050;2023-07-09T15:19:07;6.13;;;2.60;;
18568;SDS011;14780;48.316;-1.050;2023-07-09T15:21:58;6.15;;;2.47;;
18568;SDS011;14780;48.316;-1.050;2023-07-09T15:24:43;7.95;;;2.80;;
18568;SDS011;14780;48.316;-1.050;2023-07-09T15:27:29;5.45;;;2.75;;
18568;SDS011;14780;48.316;-1.050;2023-07-09T15:30:15;5.80;;;2.90;;
18568;SDS011;14780;48.316;-1.050;2023-07-09T15:33:00;9.02;;;3.47;;
18568;SDS011;14780;48.316;-1.050;2023-07-09T15:35:46;4.75;;;2.45;;
18568;SDS011;14780;48.316;-1.050;2023-07-09T15:38:34;6.93;;;2.70;;
18568;SDS011;14780;48.316;-1.050;2023-07-09T15:41:24;6.23;;;2.57;;
18568;SDS011;14780;48.316;-1.050;2023-07-09T15:44:10;6.10;;;2.85;;
18568;SDS011;14780;48.316;-1.050;2023-07-09T15:46:55;4.95;;;2.55;;
18568;SDS011;14780;48.316;-1.050;2023-07-09T15:49:41;5.00;;;2.70;;
18568;SDS011;14780;48.316;-1.050;2023-07-09T15:52:25;4.90;;;2.70;;
18568;SDS011;14780;48.316;-1.050;2023-07-09T15:55:14;6.38;;;2.55;;
18568;SDS011;14780;48.316;-1.050;2023-07-09T15:58:00;5.13;;;2.67;;
18568;SDS011;14780;48.316;-1.050;2023-07-09T16:00:46;4.75;;;2.33;;
18568;SDS011;14780;48.316;-1.050;2023-07-09T16:03:30;5.05;;;2.65;;
18568;SDS011;14780;48.316;-1.050;2023-07-09T16:06:16;6.57;;;2.57;;
18568;SDS011;14780;48.316;-1.050;2023-07-09T16:09:01;5.82;;;2.50;;
18568;SDS011;14780;48.316;-1.050;2023-07-09T16:11:47;5.10;;;2.20;;
18568;SDS011;14780;48.316;-1.050;2023-07-09T16:14:34;6.05;;;2.72;;
18568;SDS011;14780;48.316;-1.050;2023-07-09T16:17:19;5.93;;;2.78;;
18568;SDS011;14780;48.316;-1.050;2023-07-09T16:20:04;4.38;;;2.30;;
18568;SDS011;14780;48.316;-1.050;2023-07-09T16:22:49;8.07;;;2.72;;
18568;SDS011;14780;48.316;-1.050;2023-07-09T16:25:35;6.47;;;2.60;;
18568;SDS011;14780;48.316;-1.050;2023-07-09T16:28:23;6.32;;;2.63;;
18568;SDS011;14780;48.316;-1.050;2023-07-09T16:31:07;4.57;;;2.33;;
18568;SDS011;14780;48.316;-1.050;2023-07-09T16:33:53;4.78;;;2.30;;
18568;SDS011;14780;48.316;-1.050;2023-07-09T16:36:38;4.55;;;2.38;;
18568;SDS011;14780;48.316;-1.050;2023-07-09T16:39:32;4.30;;;2.13;;
18568;SDS011;14780;48.316;-1.050;2023-07-09T16:42:25;4.15;;;2.40;;
18568;SDS011;14780;48.316;-1.050;2023-07-09T16:45:11;5.78;;;2.72;;
18568;SDS011;14780;48.316;-1.050;2023-07-09T16:47:57;5.68;;;2.70;;
18568;SDS011;14780;48.316;-1.050;2023-07-09T16:50:42;4.07;;;2.30;;
18568;SDS011;14780;48.316;-1.050;2023-07-09T16:53:27;4.57;;;2.35;;
18568;SDS011;14780;48.316;-1.050;2023-07-09T16:56:12;5.80;;;2.87;;
18568;SDS011;14780;48.316;-1.050;2023-07-09T16:58:57;6.28;;;2.60;;
18568;SDS011;14780;48.316;-1.050;2023-07-09T17:01:42;7.50;;;2.45;;
18568;SDS011;14780;48.316;-1.050;2023-07-09T17:04:28;5.32;;;2.50;;
18568;SDS011;14780;48.316;-1.050;2023-07-09T17:07:14;8.82;;;2.53;;
18568;SDS011;14780;48.316;-1.050;2023-07-09T17:09:59;7.27;;;2.60;;